sensor_id;sensor_type;location;lat;lon;timestamp;pressure;altitude;pressure_sealevel;temperature;humidity
56006;BME280;41888;44.696;10.522;2022-09-30T00:01:46;99177.41;;;14.62;100.00
56006;BME280;41888;44.696;10.522;2022-09-30T00:04:20;99176.84;;;14.60;100.00
56006;BME280;41888;44.696;10.522;2022-09-30T00:06:47;99174.19;;;14.65;100.00
56006;BME280;41888;44.696;10.522;2022-09-30T00:09:13;99179.50;;;14.55;100.00
56006;BME280;41888;44.696;10.522;2022-09-30T00:11:40;99182.16;;;14.50;100.00
56006;BME280;41888;44.696;10.522;2022-09-30T00:14:11;99192.59;;;14.47;100.00
56006;BME280;41888;44.696;10.522;2022-09-30T00:16:38;99202.97;;;14.38;100.00
56006;BME280;41888;44.696;10.522;2022-09-30T00:19:04;99202.63;;;14.29;100.00
56006;BME280;41888;44.696;10.522;2022-09-30T00:21:32;99209.84;;;14.34;100.00
56006;BME280;41888;44.696;10.522;2022-09-30T00:23:59;99208.75;;;14.25;100.00
56006;BME280;41888;44.696;10.522;2022-09-30T00:26:26;99205.94;;;14.42;100.00
56006;BME280;41888;44.696;10.522;2022-09-30T00:28:54;99209.41;;;14.37;100.00
56006;BME280;41888;44.696;10.522;2022-09-30T00:31:23;99218.75;;;14.40;100.00
56006;BME280;41888;44.696;10.522;2022-09-30T00:33:50;99239.25;;;14.29;100.00
56006;BME280;41888;44.696;10.522;2022-09-30T00:36:40;99230.41;;;14.23;100.00
56006;BME280;41888;44.696;10.522;2022-09-30T00:39:13;99233.19;;;14.38;100.00
56006;BME280;41888;44.696;10.522;2022-09-30T00:41:41;99243.00;;;14.28;100.00
56006;BME280;41888;44.696;10.522;2022-09-30T00:44:42;99246.91;;;14.10;100.00
56006;BME280;41888;44.696;10.522;2022-09-30T00:49:58;99252.97;;;14.01;100.00
56006;BME280;41888;44.696;10.522;2022-09-30T00:52:27;99250.50;;;13.94;100.00
56006;BME280;41888;44.696;10.522;2022-09-30T00:54:55;99256.75;;;13.73;100.00
56006;BME280;41888;44.696;10.522;2022-09-30T00:57:23;99260.75;;;13.75;100.00
56006;BME280;41888;44.696;10.522;2022-09-30T00:59:50;99270.44;;;13.81;100.00
56006;BME280;41888;44.696;10.522;2022-09-30T01:02:17;99265.00;;;13.71;100.00
56006;BME280;41888;44.696;10.522;2022-09-30T01:04:43;99260.75;;;13.48;100.00
56006;BME280;41888;44.696;10.522;2022-09-30T01:07:11;99261.28;;;13.45;100.00
56006;BME280;41888;44.696;10.522;2022-09-30T01:09:40;99261.38;;;13.56;100.00
56006;BME280;41888;44.696;10.522;2022-09-30T01:12:13;99252.69;;;13.70;100.00
56006;BME280;41888;44.696;10.522;2022-09-30T01:14:40;99250.19;;;13.59;100.00
56006;BME280;41888;44.696;10.522;2022-09-30T01:20:26;99264.72;;;13.41;100.00
56006;BME280;41888;44.696;10.522;2022-09-30T01:23:25;99264.41;;;13.37;100.00
56006;BME280;41888;44.696;10.522;2022-09-30T01:29:18;99268.50;;;13.45;100.00
56006;BME280;41888;44.696;10.522;2022-09-30T01:40:47;99235.69;;;13.06;100.00
56006;BME280;41888;44.696;10.522;2022-09-30T01:46:39;99246.97;;;13.30;100.00
56006;BME280;41888;44.696;10.522;2022-09-30T01:49:20;99231.09;;;13.01;100.00
56006;BME280;41888;44.696;10.522;2022-09-30T01:54:54;99245.91;;;13.09;100.00
56006;BME280;41888;44.696;10.522;2022-09-30T02:00:12;99255.44;;;13.22;100.00
56006;BME280;41888;44.696;10.522;2022-09-30T02:02:57;99256.72;;;13.19;100.00
56006;BME280;41888;44.696;10.522;2022-09-30T02:05:36;99264.66;;;12.92;100.00
56006;BME280;41888;44.696;10.522;2022-09-30T02:08:14;99264.72;;;12.97;100.00
56006;BME280;41888;44.696;10.522;2022-09-30T02:10:46;99257.38;;;13.09;100.00
56006;BME280;41888;44.696;10.522;2022-09-30T02:13:21;99272.78;;;13.02;100.00
56006;BME280;41888;44.696;10.522;2022-09-30T02:15:59;99280.84;;;12.86;100.00
56006;BME280;41888;44.696;10.522;2022-09-30T02:18:34;99281.22;;;12.94;100.00
56006;BME280;41888;44.696;10.522;2022-09-30T02:21:05;99277.41;;;12.90;100.00
56006;BME280;41888;44.696;10.522;2022-09-30T02:23:34;99278.50;;;12.89;100.00
56006;BME280;41888;44.696;10.522;2022-09-30T02:26:17;99277.00;;;12.98;100.00
56006;BME280;41888;44.696;10.522;2022-09-30T02:28:48;99282.59;;;12.97;100.00
56006;BME280;41888;44.696;10.522;2022-09-30T02:31:17;99282.09;;;12.78;100.00
56006;BME280;41888;44.696;10.522;2022-09-30T02:34:07;99287.44;;;12.78;100.00
56006;BME280;41888;44.696;10.522;2022-09-30T02:36:42;99293.44;;;12.68;100.00
56006;BME280;41888;44.696;10.522;2022-09-30T02:39:15;99296.63;;;12.87;100.00
56006;BME280;41888;44.696;10.522;2022-09-30T02:41:48;99301.16;;;12.87;100.00
56006;BME280;41888;44.696;10.522;2022-09-30T02:44:17;99294.94;;;13.03;100.00
56006;BME280;41888;44.696;10.522;2022-09-30T02:49:39;99302.72;;;13.04;100.00
56006;BME280;41888;44.696;10.522;2022-09-30T02:52:47;99302.06;;;12.76;100.00
56006;BME280;41888;44.696;10.522;2022-09-30T03:00:28;99321.94;;;13.06;100.00
56006;BME280;41888;44.696;10.522;2022-09-30T03:02:59;99321.34;;;13.16;100.00
56006;BME280;41888;44.696;10.522;2022-09-30T03:05:28;99317.59;;;13.17;100.00
56006;BME280;41888;44.696;10.522;2022-09-30T03:07:55;99315.50;;;13.02;100.00
56006;BME280;41888;44.696;10.522;2022-09-30T03:10:22;99324.00;;;13.16;100.00
56006;BME280;41888;44.696;10.522;2022-09-30T03:15:50;99328.56;;;12.82;100.00
56006;BME280;41888;44.696;10.522;2022-09-30T03:18:54;99347.56;;;12.86;100.00
56006;BME280;41888;44.696;10.522;2022-09-30T03:40:41;99349.94;;;12.82;100.00
56006;BME280;41888;44.696;10.522;2022-09-30T03:46:25;99349.28;;;12.75;100.00
56006;BME280;41888;44.696;10.522;2022-09-30T03:48:59;99348.81;;;12.78;100.00
56006;BME280;41888;44.696;10.522;2022-09-30T03:51:26;99351.66;;;12.72;100.00
56006;BME280;41888;44.696;10.522;2022-09-30T03:53:55;99350.84;;;12.71;100.00
56006;BME280;41888;44.696;10.522;2022-09-30T03:56:26;99351.75;;;12.98;100.00
56006;BME280;41888;44.696;10.522;2022-09-30T03:58:53;99357.94;;;12.82;100.00
56006;BME280;41888;44.696;10.522;2022-09-30T04:01:20;99363.78;;;12.79;100.00
56006;BME280;41888;44.696;10.522;2022-09-30T04:03:50;99349.88;;;12.77;100.00
56006;BME280;41888;44.696;10.522;2022-09-30T04:06:19;99354.09;;;12.73;100.00
56006;BME280;41888;44.696;10.522;2022-09-30T04:08:46;99349.78;;;12.72;100.00
56006;BME280;41888;44.696;10.522;2022-09-30T04:11:12;99354.63;;;12.75;100.00
56006;BME280;41888;44.696;10.522;2022-09-30T04:13:38;99356.56;;;12.80;100.00
56006;BME280;41888;44.696;10.522;2022-09-30T04:16:06;99349.88;;;12.60;100.00
56006;BME280;41888;44.696;10.522;2022-09-30T04:18:35;99356.84;;;12.61;100.00
56006;BME280;41888;44.696;10.522;2022-09-30T04:21:07;99354.91;;;12.57;100.00
56006;BME280;41888;44.696;10.522;2022-09-30T04:23:38;99356.69;;;12.51;100.00
56006;BME280;41888;44.696;10.522;2022-09-30T04:26:06;99349.66;;;12.45;100.00
56006;BME280;41888;44.696;10.522;2022-09-30T04:28:33;99360.09;;;12.63;100.00
56006;BME280;41888;44.696;10.522;2022-09-30T04:31:01;99361.66;;;12.81;100.00
56006;BME280;41888;44.696;10.522;2022-09-30T04:33:27;99357.38;;;12.80;100.00
56006;BME280;41888;44.696;10.522;2022-09-30T04:35:58;99365.94;;;12.82;100.00
56006;BME280;41888;44.696;10.522;2022-09-30T04:38:25;99374.53;;;12.84;100.00
56006;BME280;41888;44.696;10.522;2022-09-30T04:40:52;99379.63;;;12.69;100.00
56006;BME280;41888;44.696;10.522;2022-09-30T04:43:19;99373.22;;;12.70;100.00
56006;BME280;41888;44.696;10.522;2022-09-30T04:45:49;99372.34;;;12.48;100.00
56006;BME280;41888;44.696;10.522;2022-09-30T04:48:16;99374.69;;;12.44;100.00
56006;BME280;41888;44.696;10.522;2022-09-30T04:50:42;99373.66;;;12.62;100.00
56006;BME280;41888;44.696;10.522;2022-09-30T04:53:11;99376.47;;;12.55;100.00
56006;BME280;41888;44.696;10.522;2022-09-30T04:55:40;99383.59;;;12.50;100.00
56006;BME280;41888;44.696;10.522;2022-09-30T04:58:06;99374.53;;;12.51;100.00
56006;BME280;41888;44.696;10.522;2022-09-30T05:00:32;99378.50;;;12.32;100.00
56006;BME280;41888;44.696;10.522;2022-09-30T05:02:58;99381.25;;;12.37;100.00
56006;BME280;41888;44.696;10.522;2022-09-30T05:05:25;99384.63;;;12.32;100.00
56006;BME280;41888;44.696;10.522;2022-09-30T05:07:51;99383.75;;;12.26;100.00
56006;BME280;41888;44.696;10.522;2022-09-30T05:10:17;99396.03;;;12.44;100.00
56006;BME280;41888;44.696;10.522;2022-09-30T05:12:43;99398.16;;;12.42;100.00
56006;BME280;41888;44.696;10.522;2022-09-30T05:15:11;99409.38;;;12.44;100.00
56006;BME280;41888;44.696;10.522;2022-09-30T05:17:37;99408.56;;;12.44;100.00
56006;BME280;41888;44.696;10.522;2022-09-30T05:20:03;99417.28;;;12.39;100.00
56006;BME280;41888;44.696;10.522;2022-09-30T05:22:35;99418.84;;;12.35;100.00
56006;BME280;41888;44.696;10.522;2022-09-30T05:25:02;99417.22;;;12.51;100.00
56006;BME280;41888;44.696;10.522;2022-09-30T05:27:29;99422.66;;;12.73;100.00
56006;BME280;41888;44.696;10.522;2022-09-30T05:29:55;99425.72;;;12.64;100.00
56006;BME280;41888;44.696;10.522;2022-09-30T05:32:22;99436.22;;;12.54;100.00
56006;BME280;41888;44.696;10.522;2022-09-30T05:34:51;99436.16;;;12.66;100.00
56006;BME280;41888;44.696;10.522;2022-09-30T05:37:17;99441.19;;;12.79;100.00
56006;BME280;41888;44.696;10.522;2022-09-30T05:39:43;99450.16;;;12.73;100.00
56006;BME280;41888;44.696;10.522;2022-09-30T05:42:10;99447.31;;;12.80;100.00
56006;BME280;41888;44.696;10.522;2022-09-30T05:44:36;99450.78;;;12.80;100.00
56006;BME280;41888;44.696;10.522;2022-09-30T05:47:04;99465.84;;;12.86;100.00
56006;BME280;41888;44.696;10.522;2022-09-30T05:49:30;99460.91;;;12.61;100.00
56006;BME280;41888;44.696;10.522;2022-09-30T05:51:59;99468.19;;;12.66;100.00
56006;BME280;41888;44.696;10.522;2022-09-30T05:54:25;99471.34;;;12.96;100.00
56006;BME280;41888;44.696;10.522;2022-09-30T05:56:52;99484.59;;;12.91;100.00
56006;BME280;41888;44.696;10.522;2022-09-30T05:59:18;99499.34;;;12.94;100.00
56006;BME280;41888;44.696;10.522;2022-09-30T06:01:44;99498.91;;;12.85;100.00
56006;BME280;41888;44.696;10.522;2022-09-30T06:04:11;99491.81;;;12.74;100.00
56006;BME280;41888;44.696;10.522;2022-09-30T06:06:37;99490.75;;;12.75;100.00
56006;BME280;41888;44.696;10.522;2022-09-30T06:09:04;99494.88;;;12.83;100.00
56006;BME280;41888;44.696;10.522;2022-09-30T06:11:30;99494.00;;;12.94;100.00
56006;BME280;41888;44.696;10.522;2022-09-30T06:13:56;99495.22;;;13.03;100.00
56006;BME280;41888;44.696;10.522;2022-09-30T06:16:23;99488.59;;;13.05;100.00
56006;BME280;41888;44.696;10.522;2022-09-30T06:18:49;99510.34;;;12.97;100.00
56006;BME280;41888;44.696;10.522;2022-09-30T06:21:16;99506.97;;;13.19;100.00
56006;BME280;41888;44.696;10.522;2022-09-30T06:23:43;99521.13;;;13.36;100.00
56006;BME280;41888;44.696;10.522;2022-09-30T06:26:11;99533.50;;;13.42;100.00
56006;BME280;41888;44.696;10.522;2022-09-30T06:28:39;99539.16;;;13.45;100.00
56006;BME280;41888;44.696;10.522;2022-09-30T06:31:06;99556.16;;;13.39;100.00
56006;BME280;41888;44.696;10.522;2022-09-30T06:33:32;99546.47;;;13.33;100.00
56006;BME280;41888;44.696;10.522;2022-09-30T06:35:58;99548.09;;;13.34;100.00
56006;BME280;41888;44.696;10.522;2022-09-30T06:38:30;99546.00;;;13.36;100.00
56006;BME280;41888;44.696;10.522;2022-09-30T06:40:59;99538.44;;;13.33;100.00
56006;BME280;41888;44.696;10.522;2022-09-30T06:43:25;99549.47;;;13.37;100.00
56006;BME280;41888;44.696;10.522;2022-09-30T06:45:51;99555.13;;;13.40;100.00
56006;BME280;41888;44.696;10.522;2022-09-30T06:48:17;99559.25;;;13.48;100.00
56006;BME280;41888;44.696;10.522;2022-09-30T06:50:44;99558.16;;;13.66;100.00
56006;BME280;41888;44.696;10.522;2022-09-30T06:53:12;99569.75;;;13.71;100.00
56006;BME280;41888;44.696;10.522;2022-09-30T06:55:38;99572.84;;;13.63;100.00
56006;BME280;41888;44.696;10.522;2022-09-30T06:58:06;99565.38;;;13.65;100.00
56006;BME280;41888;44.696;10.522;2022-09-30T07:00:34;99560.69;;;13.56;100.00
56006;BME280;41888;44.696;10.522;2022-09-30T07:03:01;99564.75;;;13.58;100.00
56006;BME280;41888;44.696;10.522;2022-09-30T07:05:28;99569.28;;;13.58;100.00
56006;BME280;41888;44.696;10.522;2022-09-30T07:07:54;99579.78;;;13.64;100.00
56006;BME280;41888;44.696;10.522;2022-09-30T07:10:21;99585.47;;;13.68;100.00
56006;BME280;41888;44.696;10.522;2022-09-30T07:12:50;99587.66;;;13.71;100.00
56006;BME280;41888;44.696;10.522;2022-09-30T07:15:17;99596.78;;;13.75;100.00
56006;BME280;41888;44.696;10.522;2022-09-30T07:17:56;99609.44;;;13.79;100.00
56006;BME280;41888;44.696;10.522;2022-09-30T07:20:23;99613.31;;;13.88;100.00
56006;BME280;41888;44.696;10.522;2022-09-30T07:22:49;99627.06;;;13.97;100.00
56006;BME280;41888;44.696;10.522;2022-09-30T07:25:15;99627.56;;;13.94;100.00
56006;BME280;41888;44.696;10.522;2022-09-30T07:27:43;99628.38;;;13.94;100.00
56006;BME280;41888;44.696;10.522;2022-09-30T07:30:10;99637.69;;;13.92;100.00
56006;BME280;41888;44.696;10.522;2022-09-30T07:32:36;99632.84;;;13.89;100.00
56006;BME280;41888;44.696;10.522;2022-09-30T07:35:03;99632.91;;;13.94;100.00
56006;BME280;41888;44.696;10.522;2022-09-30T07:37:29;99650.31;;;13.96;100.00
56006;BME280;41888;44.696;10.522;2022-09-30T07:40:04;99644.00;;;14.03;100.00
56006;BME280;41888;44.696;10.522;2022-09-30T07:42:31;99659.19;;;14.19;100.00
56006;BME280;41888;44.696;10.522;2022-09-30T07:44:58;99669.69;;;14.04;100.00
56006;BME280;41888;44.696;10.522;2022-09-30T07:47:24;99663.88;;;13.90;100.00
56006;BME280;41888;44.696;10.522;2022-09-30T07:49:50;99665.31;;;13.81;100.00
56006;BME280;41888;44.696;10.522;2022-09-30T07:52:17;99668.25;;;13.79;100.00
56006;BME280;41888;44.696;10.522;2022-09-30T07:54:43;99663.97;;;13.78;100.00
56006;BME280;41888;44.696;10.522;2022-09-30T07:57:09;99673.59;;;13.79;100.00
56006;BME280;41888;44.696;10.522;2022-09-30T07:59:38;99675.19;;;13.80;100.00
56006;BME280;41888;44.696;10.522;2022-09-30T08:02:10;99677.16;;;13.85;100.00
56006;BME280;41888;44.696;10.522;2022-09-30T08:04:38;99682.03;;;13.88;100.00
56006;BME280;41888;44.696;10.522;2022-09-30T08:07:04;99685.28;;;13.90;100.00
56006;BME280;41888;44.696;10.522;2022-09-30T08:09:30;99686.72;;;13.98;100.00
56006;BME280;41888;44.696;10.522;2022-09-30T08:11:57;99687.75;;;13.96;100.00
56006;BME280;41888;44.696;10.522;2022-09-30T08:14:27;99695.53;;;13.98;100.00
56006;BME280;41888;44.696;10.522;2022-09-30T08:16:54;99695.31;;;13.83;100.00
56006;BME280;41888;44.696;10.522;2022-09-30T08:19:26;99703.66;;;13.86;100.00
56006;BME280;41888;44.696;10.522;2022-09-30T08:21:53;99709.56;;;13.88;100.00
56006;BME280;41888;44.696;10.522;2022-09-30T08:24:20;99723.41;;;13.85;100.00
56006;BME280;41888;44.696;10.522;2022-09-30T08:26:47;99727.88;;;13.96;100.00
56006;BME280;41888;44.696;10.522;2022-09-30T08:29:13;99729.66;;;14.08;100.00
56006;BME280;41888;44.696;10.522;2022-09-30T08:31:40;99727.41;;;14.16;100.00
56006;BME280;41888;44.696;10.522;2022-09-30T08:34:07;99732.47;;;14.18;100.00
56006;BME280;41888;44.696;10.522;2022-09-30T08:36:33;99727.69;;;14.20;100.00
56006;BME280;41888;44.696;10.522;2022-09-30T08:38:59;99731.44;;;14.19;100.00
56006;BME280;41888;44.696;10.522;2022-09-30T08:44:41;99733.94;;;14.09;100.00
56006;BME280;41888;44.696;10.522;2022-09-30T08:50:02;99752.91;;;14.07;100.00
56006;BME280;41888;44.696;10.522;2022-09-30T08:52:41;99763.22;;;14.15;100.00
56006;BME280;41888;44.696;10.522;2022-09-30T08:55:18;99780.25;;;14.26;100.00
56006;BME280;41888;44.696;10.522;2022-09-30T08:57:45;99791.56;;;14.33;100.00
56006;BME280;41888;44.696;10.522;2022-09-30T09:00:15;99794.00;;;14.34;100.00
56006;BME280;41888;44.696;10.522;2022-09-30T09:18:43;99821.94;;;14.38;100.00
56006;BME280;41888;44.696;10.522;2022-09-30T09:23:48;99819.47;;;14.20;100.00
56006;BME280;41888;44.696;10.522;2022-09-30T09:26:15;99811.38;;;14.15;100.00
56006;BME280;41888;44.696;10.522;2022-09-30T09:31:26;99806.41;;;14.24;100.00
56006;BME280;41888;44.696;10.522;2022-09-30T09:34:00;99823.06;;;14.26;100.00
56006;BME280;41888;44.696;10.522;2022-09-30T09:36:57;99823.59;;;14.28;100.00
56006;BME280;41888;44.696;10.522;2022-09-30T09:47:38;99826.22;;;14.40;100.00
56006;BME280;41888;44.696;10.522;2022-09-30T09:50:15;99829.97;;;14.38;100.00
56006;BME280;41888;44.696;10.522;2022-09-30T09:55:42;99821.69;;;14.40;100.00
56006;BME280;41888;44.696;10.522;2022-09-30T09:58:12;99824.06;;;14.53;100.00
56006;BME280;41888;44.696;10.522;2022-09-30T10:00:39;99834.63;;;14.65;100.00
56006;BME280;41888;44.696;10.522;2022-09-30T10:03:23;99830.81;;;14.77;100.00
56006;BME280;41888;44.696;10.522;2022-09-30T10:06:07;99841.53;;;14.77;100.00
56006;BME280;41888;44.696;10.522;2022-09-30T10:08:53;99834.06;;;14.79;100.00
56006;BME280;41888;44.696;10.522;2022-09-30T10:11:25;99829.94;;;14.72;100.00
56006;BME280;41888;44.696;10.522;2022-09-30T10:14:00;99837.59;;;14.63;100.00
56006;BME280;41888;44.696;10.522;2022-09-30T10:16:33;99832.53;;;14.67;100.00
56006;BME280;41888;44.696;10.522;2022-09-30T10:19:02;99829.03;;;14.83;100.00
56006;BME280;41888;44.696;10.522;2022-09-30T10:21:29;99837.13;;;14.88;100.00
56006;BME280;41888;44.696;10.522;2022-09-30T10:23:56;99841.25;;;14.96;100.00
56006;BME280;41888;44.696;10.522;2022-09-30T10:26:27;99833.28;;;15.01;100.00
56006;BME280;41888;44.696;10.522;2022-09-30T10:28:59;99834.94;;;15.07;100.00
56006;BME280;41888;44.696;10.522;2022-09-30T10:36:51;99848.91;;;15.09;100.00
56006;BME280;41888;44.696;10.522;2022-09-30T10:41:51;99864.13;;;15.25;100.00
56006;BME280;41888;44.696;10.522;2022-09-30T10:44:25;99873.59;;;15.11;100.00
56006;BME280;41888;44.696;10.522;2022-09-30T10:46:58;99874.97;;;15.13;100.00
56006;BME280;41888;44.696;10.522;2022-09-30T10:49:34;99877.81;;;15.07;100.00
56006;BME280;41888;44.696;10.522;2022-09-30T10:52:02;99872.16;;;15.03;100.00
56006;BME280;41888;44.696;10.522;2022-09-30T10:54:51;99869.06;;;15.11;100.00
56006;BME280;41888;44.696;10.522;2022-09-30T10:57:25;99868.25;;;15.11;100.00
56006;BME280;41888;44.696;10.522;2022-09-30T11:00:05;99864.31;;;15.18;100.00
56006;BME280;41888;44.696;10.522;2022-09-30T11:02:55;99866.19;;;15.18;100.00
56006;BME280;41888;44.696;10.522;2022-09-30T11:05:42;99862.78;;;15.23;100.00
56006;BME280;41888;44.696;10.522;2022-09-30T11:08:28;99860.66;;;15.25;100.00
56006;BME280;41888;44.696;10.522;2022-09-30T11:11:16;99863.56;;;15.23;100.00
56006;BME280;41888;44.696;10.522;2022-09-30T11:17:56;99869.38;;;15.37;100.00
56006;BME280;41888;44.696;10.522;2022-09-30T11:20:14;99867.56;;;15.42;100.00
56006;BME280;41888;44.696;10.522;2022-09-30T11:23:29;99867.47;;;15.54;100.00
56006;BME280;41888;44.696;10.522;2022-09-30T11:31:32;99893.00;;;15.40;100.00
56006;BME280;41888;44.696;10.522;2022-09-30T11:34:23;99895.94;;;15.38;100.00
56006;BME280;41888;44.696;10.522;2022-09-30T11:37:19;99894.88;;;15.39;100.00
56006;BME280;41888;44.696;10.522;2022-09-30T11:51:13;99904.44;;;15.13;100.00
56006;BME280;41888;44.696;10.522;2022-09-30T11:58:56;99909.97;;;15.07;100.00
56006;BME280;41888;44.696;10.522;2022-09-30T12:01:36;99912.56;;;15.02;100.00
56006;BME280;41888;44.696;10.522;2022-09-30T12:06:39;99920.31;;;14.98;100.00
56006;BME280;41888;44.696;10.522;2022-09-30T12:09:25;99918.44;;;14.99;100.00
56006;BME280;41888;44.696;10.522;2022-09-30T12:12:07;99916.81;;;14.98;100.00
56006;BME280;41888;44.696;10.522;2022-09-30T12:14:49;99918.94;;;14.96;100.00
56006;BME280;41888;44.696;10.522;2022-09-30T12:17:38;99918.50;;;15.04;100.00
56006;BME280;41888;44.696;10.522;2022-09-30T12:20:31;99906.06;;;15.14;100.00
56006;BME280;41888;44.696;10.522;2022-09-30T12:25:57;99908.56;;;15.21;100.00
56006;BME280;41888;44.696;10.522;2022-09-30T12:28:43;99902.81;;;15.12;100.00
56006;BME280;41888;44.696;10.522;2022-09-30T12:43:36;99931.09;;;15.03;100.00
56006;BME280;41888;44.696;10.522;2022-09-30T12:46:16;99930.53;;;15.01;100.00
56006;BME280;41888;44.696;10.522;2022-09-30T12:48:57;99926.78;;;15.02;100.00
56006;BME280;41888;44.696;10.522;2022-09-30T12:51:30;99938.72;;;15.11;100.00
56006;BME280;41888;44.696;10.522;2022-09-30T12:54:01;99946.34;;;15.03;100.00
56006;BME280;41888;44.696;10.522;2022-09-30T12:56:31;99937.69;;;14.96;100.00
56006;BME280;41888;44.696;10.522;2022-09-30T12:58:59;99938.25;;;14.98;100.00
56006;BME280;41888;44.696;10.522;2022-09-30T13:01:30;99941.44;;;14.95;100.00
56006;BME280;41888;44.696;10.522;2022-09-30T13:09:20;99924.38;;;14.84;100.00
56006;BME280;41888;44.696;10.522;2022-09-30T13:19:37;99945.22;;;14.82;100.00
56006;BME280;41888;44.696;10.522;2022-09-30T13:27:44;99956.59;;;14.72;100.00
56006;BME280;41888;44.696;10.522;2022-09-30T13:35:32;99970.56;;;14.74;100.00
56006;BME280;41888;44.696;10.522;2022-09-30T13:40:48;99981.72;;;14.55;100.00
56006;BME280;41888;44.696;10.522;2022-09-30T13:48:59;99990.38;;;14.45;100.00
56006;BME280;41888;44.696;10.522;2022-09-30T13:51:29;99984.50;;;14.31;100.00
56006;BME280;41888;44.696;10.522;2022-09-30T13:54:05;100000.88;;;14.35;100.00
56006;BME280;41888;44.696;10.522;2022-09-30T13:56:35;99999.75;;;14.31;100.00
56006;BME280;41888;44.696;10.522;2022-09-30T13:59:25;99999.25;;;14.34;100.00
56006;BME280;41888;44.696;10.522;2022-09-30T14:02:14;99998.03;;;14.25;100.00
56006;BME280;41888;44.696;10.522;2022-09-30T14:21:49;100019.53;;;14.30;100.00
56006;BME280;41888;44.696;10.522;2022-09-30T14:24:24;100028.50;;;14.24;100.00
56006;BME280;41888;44.696;10.522;2022-09-30T14:30:00;100026.97;;;14.28;100.00
56006;BME280;41888;44.696;10.522;2022-09-30T14:32:42;100035.38;;;14.20;100.00
56006;BME280;41888;44.696;10.522;2022-09-30T14:35:31;100037.84;;;14.21;100.00
56006;BME280;41888;44.696;10.522;2022-09-30T14:38:12;100034.53;;;14.31;100.00
56006;BME280;41888;44.696;10.522;2022-09-30T14:40:46;100033.41;;;14.27;100.00
56006;BME280;41888;44.696;10.522;2022-09-30T14:43:16;100032.31;;;14.28;100.00
56006;BME280;41888;44.696;10.522;2022-09-30T14:45:49;100032.00;;;14.24;100.00
56006;BME280;41888;44.696;10.522;2022-09-30T14:48:22;100030.22;;;14.30;100.00
56006;BME280;41888;44.696;10.522;2022-09-30T14:51:01;100029.28;;;14.36;100.00
56006;BME280;41888;44.696;10.522;2022-09-30T14:53:32;100031.38;;;14.34;100.00
56006;BME280;41888;44.696;10.522;2022-09-30T14:56:00;100039.06;;;14.30;100.00
56006;BME280;41888;44.696;10.522;2022-09-30T14:58:27;100035.81;;;14.40;100.00
56006;BME280;41888;44.696;10.522;2022-09-30T15:03:27;100021.25;;;14.48;100.00
56006;BME280;41888;44.696;10.522;2022-09-30T15:05:54;100014.84;;;14.49;100.00
56006;BME280;41888;44.696;10.522;2022-09-30T15:08:22;100007.22;;;14.57;100.00
56006;BME280;41888;44.696;10.522;2022-09-30T15:10:50;100012.88;;;14.61;100.00
56006;BME280;41888;44.696;10.522;2022-09-30T15:13:18;100019.66;;;14.63;100.00
56006;BME280;41888;44.696;10.522;2022-09-30T15:15:46;100023.78;;;14.71;100.00
56006;BME280;41888;44.696;10.522;2022-09-30T15:18:33;100032.16;;;14.74;100.00
56006;BME280;41888;44.696;10.522;2022-09-30T15:21:11;100029.47;;;14.74;100.00
56006;BME280;41888;44.696;10.522;2022-09-30T15:23:43;100028.91;;;14.72;100.00
56006;BME280;41888;44.696;10.522;2022-09-30T15:26:11;100028.84;;;14.84;100.00
56006;BME280;41888;44.696;10.522;2022-09-30T15:28:39;100032.06;;;14.86;100.00
56006;BME280;41888;44.696;10.522;2022-09-30T15:31:06;100029.97;;;14.88;100.00
56006;BME280;41888;44.696;10.522;2022-09-30T15:33:34;100030.28;;;14.92;100.00
56006;BME280;41888;44.696;10.522;2022-09-30T15:36:02;100039.41;;;14.91;100.00
56006;BME280;41888;44.696;10.522;2022-09-30T15:38:31;100047.91;;;14.88;100.00
56006;BME280;41888;44.696;10.522;2022-09-30T15:43:33;100051.88;;;15.02;100.00
56006;BME280;41888;44.696;10.522;2022-09-30T15:48:47;100067.34;;;15.11;100.00
56006;BME280;41888;44.696;10.522;2022-09-30T15:51:36;100072.69;;;14.95;100.00
56006;BME280;41888;44.696;10.522;2022-09-30T15:56:41;100077.19;;;14.77;100.00
56006;BME280;41888;44.696;10.522;2022-09-30T15:59:10;100079.28;;;14.75;100.00
56006;BME280;41888;44.696;10.522;2022-09-30T16:01:47;100081.59;;;14.84;100.00
56006;BME280;41888;44.696;10.522;2022-09-30T16:09:32;100083.50;;;14.71;100.00
56006;BME280;41888;44.696;10.522;2022-09-30T16:12:18;100077.16;;;14.61;100.00
56006;BME280;41888;44.696;10.522;2022-09-30T16:15:10;100078.78;;;14.62;100.00
56006;BME280;41888;44.696;10.522;2022-09-30T16:17:44;100080.13;;;14.48;100.00
56006;BME280;41888;44.696;10.522;2022-09-30T16:25:17;100088.00;;;14.54;100.00
56006;BME280;41888;44.696;10.522;2022-09-30T16:27:44;100077.44;;;14.48;100.00
56006;BME280;41888;44.696;10.522;2022-09-30T16:30:16;100081.56;;;14.67;100.00
56006;BME280;41888;44.696;10.522;2022-09-30T16:32:45;100079.69;;;14.67;100.00
56006;BME280;41888;44.696;10.522;2022-09-30T16:35:19;100096.38;;;14.58;100.00
56006;BME280;41888;44.696;10.522;2022-09-30T16:37:46;100105.31;;;14.63;100.00
56006;BME280;41888;44.696;10.522;2022-09-30T16:40:22;100109.97;;;14.68;100.00
56006;BME280;41888;44.696;10.522;2022-09-30T16:42:49;100123.16;;;14.58;100.00
56006;BME280;41888;44.696;10.522;2022-09-30T16:45:16;100118.03;;;14.56;100.00